<?xml version="1.0" encoding="UTF-8" standalone="no" ?>
<gpx xmlns="http://www.topografix.com/GPX/1/1" xmlns:xsi="http://www.w3.org/2001/XMLSchema-instance" xsi:schemaLocation="http://www.topografix.com/GPX/1/1 http://www.topografix.com/GPX/1/1/gpx.xsd" version="1.1" creator="VisuGPX - https://www.visugpx.com">
  <metadata>
    <name>chateau de salm 9,56k</name>
  </metadata>
  <trk>
    <name><![CDATA[8570034-FOUDAY 1]]></name>
    <trkseg>
      <trkpt lat="48.47144" lon="7.18175">
        <ele>617</ele>
        <time>2018-12-21T09:39:52Z</time>
      </trkpt>
      <trkpt lat="48.47264" lon="7.17841">
        <ele>647</ele>
        <time>2018-12-21T09:40:52Z</time>
      </trkpt>
      <trkpt lat="48.4715" lon="7.17506">
        <ele>658</ele>
        <time>2018-12-21T09:41:52Z</time>
      </trkpt>
      <trkpt lat="48.46752" lon="7.17437">
        <ele>654</ele>
        <time>2018-12-21T09:42:52Z</time>
      </trkpt>
      <trkpt lat="48.46524" lon="7.16991">
        <ele>654</ele>
        <time>2018-12-21T09:43:52Z</time>
      </trkpt>
      <trkpt lat="48.46296" lon="7.16527">
        <ele>650</ele>
        <time>2018-12-21T09:44:52Z</time>
      </trkpt>
      <trkpt lat="48.46069" lon="7.16227">
        <ele>655</ele>
        <time>2018-12-21T09:45:52Z</time>
      </trkpt>
      <trkpt lat="48.45949" lon="7.15497">
        <ele>649</ele>
        <time>2018-12-21T09:46:52Z</time>
      </trkpt>
      <trkpt lat="48.45858" lon="7.15103">
        <ele>625</ele>
        <time>2018-12-21T09:47:52Z</time>
      </trkpt>
      <trkpt lat="48.45676" lon="7.14734">
        <ele>623</ele>
        <time>2018-12-21T09:48:52Z</time>
      </trkpt>
      <trkpt lat="48.45767" lon="7.14201">
        <ele>600</ele>
        <time>2018-12-21T09:49:52Z</time>
      </trkpt>
      <trkpt lat="48.45625" lon="7.13549">
        <ele>580</ele>
        <time>2018-12-21T09:50:52Z</time>
      </trkpt>
      <trkpt lat="48.45386" lon="7.13103">
        <ele>564</ele>
        <time>2018-12-21T09:51:52Z</time>
      </trkpt>
      <trkpt lat="48.45716" lon="7.13163">
        <ele>579</ele>
        <time>2018-12-21T09:52:52Z</time>
      </trkpt>
      <trkpt lat="48.45852" lon="7.13438">
        <ele>556</ele>
        <time>2018-12-21T09:53:52Z</time>
      </trkpt>
      <trkpt lat="48.46165" lon="7.13781">
        <ele>535</ele>
        <time>2018-12-21T09:54:52Z</time>
      </trkpt>
      <trkpt lat="48.4653" lon="7.14244">
        <ele>512</ele>
        <time>2018-12-21T09:55:52Z</time>
      </trkpt>
      <trkpt lat="48.46342" lon="7.1445">
        <ele>552</ele>
        <time>2018-12-21T09:56:52Z</time>
      </trkpt>
      <trkpt lat="48.46165" lon="7.14768">
        <ele>584</ele>
        <time>2018-12-21T09:57:52Z</time>
      </trkpt>
      <trkpt lat="48.46404" lon="7.14708">
        <ele>586</ele>
        <time>2018-12-21T09:58:52Z</time>
      </trkpt>
      <trkpt lat="48.46569" lon="7.14991">
        <ele>599</ele>
        <time>2018-12-21T09:59:52Z</time>
      </trkpt>
      <trkpt lat="48.46746" lon="7.15429">
        <ele>612</ele>
        <time>2018-12-21T10:00:52Z</time>
      </trkpt>
      <trkpt lat="48.46882" lon="7.15875">
        <ele>644</ele>
        <time>2018-12-21T10:01:52Z</time>
      </trkpt>
      <trkpt lat="48.46865" lon="7.16261">
        <ele>619</ele>
        <time>2018-12-21T10:02:52Z</time>
      </trkpt>
      <trkpt lat="48.46877" lon="7.16648">
        <ele>638</ele>
        <time>2018-12-21T10:03:52Z</time>
      </trkpt>
      <trkpt lat="48.46746" lon="7.1706">
        <ele>632</ele>
        <time>2018-12-21T10:04:52Z</time>
      </trkpt>
      <trkpt lat="48.47127" lon="7.17412">
        <ele>653</ele>
        <time>2018-12-21T10:05:52Z</time>
      </trkpt>
    </trkseg>
  </trk>
</gpx>